加载中…

加载中...

荐

民航通观察:厦航8667偏出跑道事件解析

转载 2018-08-20 09:56:06


  民航通消息:当地时间8月16日,厦门航空公司一架波音B737-800客机,执行从厦门飞往菲律宾首都马尼拉的MF8667航班,飞机在马尼拉机场落地时冲出跑道,机上165人无人伤亡。

  航班当日运行还原

  2018年8月16日,厦门航空公司计划由注册号B-5498的波音B737-800飞机执行MF8667航班,事发飞机机龄8.6年,装备两台CFM56-7型发动机,于2010年1月首次飞行。

  MF8667航班计划起飞机场厦门高崎国际机场(XMN/ZSAM),目的机场马尼拉国际机场(MNL/RPLL),计划起飞时间北京时21:05(UTC 13:05),计划落地时间当地时23:30(UTC 15:30),计划飞行距离1151公里,航班机组8人,机长为韩籍,机上旅客157人。

  飞机在马尼拉机场24号跑道第一次进近时由于天气原因低高度复飞,再次进近后于当地时23:55(UTC 15:55)在24号跑道着陆,飞机滑跑时偏出跑道左侧,最终停在草地上,机腹着地,左侧发动机脱离机翼,左起落架坍塌,随后机组启动应急撤离程序,飞机应急滑梯释放,机上165人安全撤离,无人员受伤报告。

  中国民航局于17日通报了MF8667航班事件,并且成立了事件调查组前往菲律宾,配合菲律宾民航局(CAAP)的调查人员展开调查。

  事件分析

  根据MF8667航班的飞行轨迹和飞行剖面图分析,当地时间23:08(UTC 15:08)飞机下降至18000英尺高度,随后在马尼拉机场东北方向加入等待程序,等待约14分钟后开始向马尼拉机场进近,在当地时间23:40(UTC 15:40)飞机中止进近并复飞,期间最低下降至525英尺。

  马尼拉机场有两条物理跑道,跑道号分别为06/24和13/31,06/24跑道全长3410米,13/31跑道全长1911米,根据菲律宾方面公布的相关着陆程序,其进近方式如下:

  06号跑道:ILS、RNAV(GNSS)、VOR

  24号跑道:ILS、RNAV(GNSS)、VOR

  13号跑道:VOR

  其中06号跑道ILS进近最低标准为能见度800米/决断高264英尺,RNAV(GNSS)进近最低标准为能见度1600米/决断高394英尺,VOR进近最低标准为能见度1200米/决断高474英尺;24号跑道ILS进近最低标准为能见度800米/决断高300英尺,RNAV(GNSS)进近最低标准为能见度1600米/决断高605英尺,VOR进近最低标准为能见度2800米/决断高795英尺;13号跑道VOR进近最低标准为能见度3700米/决断高634英尺(均为C类飞机且ALS进近灯光系统正常工作时的标准)。

  事发时马尼拉机场天气实况报文:

  14:35UTC/22:35当地时间:

  RPLL 161435Z 27021KT 3000 +RA SCT022 OVC090 25/25 Q1006 TEMPO FM1500 6000 RA RMK A2971=

  15:00UTC/23:00当地时间:

  RPLL 161500Z 25017KT 2500 +TSRA FEW020CB BKN022 OVC080 24/24 Q1007 TEMPO 5000 TSRA 2974 CB OHD=

  16:00UTC/00:00+ 当地时间:

  RPLL 161600Z 28011KT 250V310 2000 +TSRA FEW018CB BKN020 OVC080 24/24 Q1007 TEMPO 5000 TSRA RMK A2974 CB OHD=

  据民航通了解,事发前80分钟UTC1435,马尼拉机场气象部门发布一份特选报文,平均风向270度,风速21节,能见度3000米,大雨;事发前55分钟UTC1500,平均风向250度,风速17节,能见度2500米,强雷雨;最靠近事发时UTC1600时的天气,平均风向280度,风速11节,能见度2000米,强雷雨,3-4个云量的积雨云,云底高1800英尺,5-7个云量云底高2000英尺,满天云云底高8000英尺,温度和露点温度均为24摄氏度,修正海压1007百帕,短时能见度5000米,中雷雨,积雨云覆盖本场上空。

  根据气象报文、航行通告和着陆程序,推测出以下信息:

  1.着陆时的强雷雨可能是事件发生的重要原因,强雷雨经常伴随的风切变和乱流会严重影响飞机的稳定进近,再加上雨量过大导致跑道湿滑甚至可能造成污染跑道,容易引发机组操纵偏差导致侧滑。

  2. 飞机从第一次进近复飞后到第二次进近的过程中,从天气报文可以看出能见度持续下降,夜间强雷雨对能见度的影响不容忽视,另外根据马尼拉B3578/18号通告,从18年8月7日22:00预计至11月8日23:00(UTC)06/24跑道中线灯不工作,因此虽然满足相关规章标准,但在强雷雨导致的低能见度情况下没有中线灯不利于机组的目视参考,机组控制飞机落地滑跑走向的难度相对增加,或许是飞机偏出跑道的一个诱因。

  3.既然已经复飞过一次,并且强雷雨持续,为何机组仍然尝试着陆?根据马尼拉机场B 2819/18号通告显示:由于施工(跑道沥青覆盖和新快速脱离道建设),2018年7月3日至10月25日,每天16:00-22:00(UTC时间)跑道06/24关闭。每周日和以下日期除外:7月7日、8月20日、8月21日。由于施工人员和设备,以及电力施工和深基坑的存在,请引起注意。因此当地时00:00后长跑道06/24将不能使用。另外一份B1945/18号通告显示13/31号跑道只能在06/24关闭时使用且31号不能落地,因此该事件中飞机落地已经非常接近长跑道关闭时间,若晚于00:00后,机组将只能使用唯一的13号短跑道单向着陆,接近满载的B737-800飞机在13号短跑道且为湿/污染道面时的着陆性能可能并不乐观,这或许是机组没有继续等待的一个因素。

  4.在调查结果宣布之前,也不完全排除飞行员操作失误、机械故障、FOD(外来物)影响、跑道入侵等原因。

  5.从发动机掉落的位置和飞机偏出路径来看,推测是由于飞机偏出跑道后左起落架坍塌折断,机腹和左侧机翼连带发动机接地滑行,受到阻力后发动机在途中脱离机翼。

  6.马尼拉机场AIP资料中显示,马尼拉机场具备搬移B747-400及以下机型受损航空器的能力,具备一套可使B747-400升降的设备和移动的设备。因此事发受损的B737-800飞机机场可以搬移,但由于搬移工作复杂,马尼拉机场陆续发布多份航行通告宣布06/24跑道关闭,最近一份B3831/18号通告显示06/24跑道将关闭至17日UTC 21:00。

  7.由于受损飞机占用,马尼拉机场在事发后不断推后06/24跑道的开放时间,仅有13号跑道能供飞机着陆,并且B1945/18号通告中显示13号跑道只能接受C类及以下航空器落地,因此截至目前,共有29个航班因均为C类以上飞机无法在13号跑道落地相继备降克拉克、宿务、香港、曼谷等机场,大多数为国际远程航班。另外还造成至少40余个计划由C类以上飞机执行的航班取消,其他航班均不同程度延误。

  据民航通了解,在大多数冲偏出跑道事件中,恶劣天气往往是重要原因之一,因此国内众多航空公司手册中都规定禁止飞机在强降雨中起降。旺季运行还是应牢记民航局的八该一反对:

  该复飞的复飞 该穿云的穿云

  该返航的返航 该备降的备降

  该绕飞的绕飞 该等待的等待

  该提醒的提醒 该动手的动手

  反对盲目蛮干


阅读(0) 评论(0) 收藏(0) 转载(0) 举报
分享

评论

重要提示:警惕虚假中奖信息
0条评论展开
相关阅读
加载中,请稍后
姘戣埅閫
  • 博客等级:
  • 博客积分:0
  • 博客访问:206,442
  • 关注人气:0
  • 荣誉徽章:

相关博文

新浪BLOG意见反馈留言板 电话:4006900000 提示音后按1键(按当地市话标准计费) 欢迎批评指正

新浪简介 | About Sina | 广告服务 | 联系我们 | 招聘信息 | 网站律师 | SINA English | 会员注册 | 产品答疑

新浪公司 版权所有